sensor_id;sensor_type;location;lat;lon;timestamp;P1;durP1;ratioP1;P2;durP2;ratioP2
43435;SDS011;36399;51.444;-2.018;2023-03-05T00:01:09;23.13;;;11.73;;
43435;SDS011;36399;51.444;-2.018;2023-03-05T00:03:37;26.47;;;12.57;;
43435;SDS011;36399;51.444;-2.018;2023-03-05T00:06:04;26.80;;;12.80;;
43435;SDS011;36399;51.444;-2.018;2023-03-05T00:08:30;24.97;;;12.33;;
43435;SDS011;36399;51.444;-2.018;2023-03-05T00:10:57;27.77;;;12.83;;
43435;SDS011;36399;51.444;-2.018;2023-03-05T00:13:29;22.90;;;11.30;;
43435;SDS011;36399;51.444;-2.018;2023-03-05T00:15:55;22.63;;;12.43;;
43435;SDS011;36399;51.444;-2.018;2023-03-05T00:18:21;22.43;;;11.67;;
43435;SDS011;36399;51.444;-2.018;2023-03-05T00:20:48;26.87;;;12.17;;
43435;SDS011;36399;51.444;-2.018;2023-03-05T00:23:14;23.17;;;11.30;;
43435;SDS011;36399;51.444;-2.018;2023-03-05T00:25:40;22.43;;;12.03;;
43435;SDS011;36399;51.444;-2.018;2023-03-05T00:28:07;21.03;;;11.30;;
43435;SDS011;36399;51.444;-2.018;2023-03-05T00:30:33;23.77;;;12.93;;
43435;SDS011;36399;51.444;-2.018;2023-03-05T00:33:00;22.50;;;11.07;;
43435;SDS011;36399;51.444;-2.018;2023-03-05T00:35:26;25.03;;;13.00;;
43435;SDS011;36399;51.444;-2.018;2023-03-05T00:37:56;20.00;;;11.10;;
43435;SDS011;36399;51.444;-2.018;2023-03-05T00:40:22;25.73;;;11.80;;
43435;SDS011;36399;51.444;-2.018;2023-03-05T00:42:48;22.27;;;10.60;;
43435;SDS011;36399;51.444;-2.018;2023-03-05T00:45:14;24.20;;;12.63;;
43435;SDS011;36399;51.444;-2.018;2023-03-05T00:47:40;20.67;;;11.57;;
43435;SDS011;36399;51.444;-2.018;2023-03-05T00:50:06;19.93;;;10.47;;
43435;SDS011;36399;51.444;-2.018;2023-03-05T00:52:33;24.53;;;11.33;;
43435;SDS011;36399;51.444;-2.018;2023-03-05T00:54:59;22.00;;;10.57;;
43435;SDS011;36399;51.444;-2.018;2023-03-05T00:57:24;23.07;;;11.00;;
43435;SDS011;36399;51.444;-2.018;2023-03-05T00:59:50;20.47;;;11.03;;
43435;SDS011;36399;51.444;-2.018;2023-03-05T01:02:16;19.47;;;11.00;;
43435;SDS011;36399;51.444;-2.018;2023-03-05T01:04:42;19.20;;;10.23;;
43435;SDS011;36399;51.444;-2.018;2023-03-05T01:07:11;22.00;;;11.07;;
43435;SDS011;36399;51.444;-2.018;2023-03-05T01:09:38;22.00;;;9.53;;
43435;SDS011;36399;51.444;-2.018;2023-03-05T01:12:04;20.43;;;10.53;;
43435;SDS011;36399;51.444;-2.018;2023-03-05T01:14:30;20.10;;;10.40;;
43435;SDS011;36399;51.444;-2.018;2023-03-05T01:16:57;21.53;;;11.83;;
43435;SDS011;36399;51.444;-2.018;2023-03-05T01:19:22;18.03;;;10.33;;
43435;SDS011;36399;51.444;-2.018;2023-03-05T01:21:48;18.43;;;10.63;;
43435;SDS011;36399;51.444;-2.018;2023-03-05T01:24:14;20.33;;;10.53;;
43435;SDS011;36399;51.444;-2.018;2023-03-05T01:26:40;21.80;;;10.53;;
43435;SDS011;36399;51.444;-2.018;2023-03-05T01:29:06;21.90;;;11.07;;
43435;SDS011;36399;51.444;-2.018;2023-03-05T01:31:32;20.93;;;11.23;;
43435;SDS011;36399;51.444;-2.018;2023-03-05T01:33:58;19.40;;;10.47;;
43435;SDS011;36399;51.444;-2.018;2023-03-05T01:36:24;26.77;;;11.90;;
43435;SDS011;36399;51.444;-2.018;2023-03-05T01:38:50;20.63;;;10.40;;
43435;SDS011;36399;51.444;-2.018;2023-03-05T01:41:17;19.20;;;11.50;;
43435;SDS011;36399;51.444;-2.018;2023-03-05T01:43:44;21.33;;;10.73;;
43435;SDS011;36399;51.444;-2.018;2023-03-05T01:48:41;23.70;;;10.87;;
43435;SDS011;36399;51.444;-2.018;2023-03-05T01:51:11;22.20;;;12.23;;
43435;SDS011;36399;51.444;-2.018;2023-03-05T01:53:38;21.97;;;10.73;;
43435;SDS011;36399;51.444;-2.018;2023-03-05T01:56:04;20.30;;;10.90;;
43435;SDS011;36399;51.444;-2.018;2023-03-05T01:58:31;23.23;;;10.17;;
43435;SDS011;36399;51.444;-2.018;2023-03-05T02:00:57;22.57;;;10.67;;
43435;SDS011;36399;51.444;-2.018;2023-03-05T02:03:23;19.33;;;10.10;;
43435;SDS011;36399;51.444;-2.018;2023-03-05T02:05:50;19.30;;;11.60;;
43435;SDS011;36399;51.444;-2.018;2023-03-05T02:08:17;21.20;;;10.50;;
43435;SDS011;36399;51.444;-2.018;2023-03-05T02:10:46;20.50;;;11.53;;
43435;SDS011;36399;51.444;-2.018;2023-03-05T02:13:18;21.33;;;10.53;;
43435;SDS011;36399;51.444;-2.018;2023-03-05T02:15:47;17.52;;;9.73;;
43435;SDS011;36399;51.444;-2.018;2023-03-05T02:18:14;18.63;;;10.23;;
43435;SDS011;36399;51.444;-2.018;2023-03-05T02:21:25;19.80;;;9.57;;
43435;SDS011;36399;51.444;-2.018;2023-03-05T02:23:35;18.83;;;10.33;;
43435;SDS011;36399;51.444;-2.018;2023-03-05T02:26:03;18.43;;;9.90;;
43435;SDS011;36399;51.444;-2.018;2023-03-05T02:28:37;18.70;;;10.37;;
43435;SDS011;36399;51.444;-2.018;2023-03-05T02:31:20;17.95;;;10.38;;
43435;SDS011;36399;51.444;-2.018;2023-03-05T02:33:48;20.73;;;10.27;;
43435;SDS011;36399;51.444;-2.018;2023-03-05T02:36:14;21.60;;;11.17;;
43435;SDS011;36399;51.444;-2.018;2023-03-05T02:38:41;18.87;;;10.20;;
43435;SDS011;36399;51.444;-2.018;2023-03-05T02:41:08;21.73;;;10.43;;
43435;SDS011;36399;51.444;-2.018;2023-03-05T02:43:34;20.50;;;10.20;;
43435;SDS011;36399;51.444;-2.018;2023-03-05T02:46:00;16.00;;;9.67;;
43435;SDS011;36399;51.444;-2.018;2023-03-05T02:48:26;23.90;;;10.60;;
43435;SDS011;36399;51.444;-2.018;2023-03-05T02:50:52;18.97;;;9.70;;
43435;SDS011;36399;51.444;-2.018;2023-03-05T02:53:20;20.80;;;11.27;;
43435;SDS011;36399;51.444;-2.018;2023-03-05T02:55:47;19.70;;;10.67;;
43435;SDS011;36399;51.444;-2.018;2023-03-05T02:58:15;22.60;;;11.30;;
43435;SDS011;36399;51.444;-2.018;2023-03-05T03:00:41;21.57;;;10.47;;
43435;SDS011;36399;51.444;-2.018;2023-03-05T03:03:08;19.73;;;11.30;;
43435;SDS011;36399;51.444;-2.018;2023-03-05T03:05:34;22.23;;;12.23;;
43435;SDS011;36399;51.444;-2.018;2023-03-05T03:08:01;22.80;;;12.27;;
43435;SDS011;36399;51.444;-2.018;2023-03-05T03:10:28;21.13;;;11.37;;
43435;SDS011;36399;51.444;-2.018;2023-03-05T03:12:53;21.33;;;10.70;;
43435;SDS011;36399;51.444;-2.018;2023-03-05T03:15:19;26.17;;;12.03;;
43435;SDS011;36399;51.444;-2.018;2023-03-05T03:17:46;23.83;;;11.73;;
43435;SDS011;36399;51.444;-2.018;2023-03-05T03:20:13;22.30;;;10.47;;
43435;SDS011;36399;51.444;-2.018;2023-03-05T03:22:42;22.43;;;11.20;;
43435;SDS011;36399;51.444;-2.018;2023-03-05T03:25:10;24.97;;;12.13;;
43435;SDS011;36399;51.444;-2.018;2023-03-05T03:27:39;23.53;;;12.13;;
43435;SDS011;36399;51.444;-2.018;2023-03-05T03:30:05;22.80;;;11.07;;
43435;SDS011;36399;51.444;-2.018;2023-03-05T03:32:32;22.53;;;11.00;;
43435;SDS011;36399;51.444;-2.018;2023-03-05T03:34:58;19.97;;;9.83;;
43435;SDS011;36399;51.444;-2.018;2023-03-05T03:37:25;20.63;;;11.10;;
43435;SDS011;36399;51.444;-2.018;2023-03-05T03:39:51;23.33;;;10.57;;
43435;SDS011;36399;51.444;-2.018;2023-03-05T03:42:18;23.10;;;13.67;;
43435;SDS011;36399;51.444;-2.018;2023-03-05T03:44:44;21.93;;;12.10;;
43435;SDS011;36399;51.444;-2.018;2023-03-05T03:47:11;24.97;;;12.60;;
43435;SDS011;36399;51.444;-2.018;2023-03-05T03:49:37;24.40;;;12.37;;
43435;SDS011;36399;51.444;-2.018;2023-03-05T03:52:03;26.67;;;11.77;;
43435;SDS011;36399;51.444;-2.018;2023-03-05T03:54:29;24.17;;;12.50;;
43435;SDS011;36399;51.444;-2.018;2023-03-05T03:56:55;24.10;;;11.83;;
43435;SDS011;36399;51.444;-2.018;2023-03-05T03:59:21;24.73;;;12.67;;
43435;SDS011;36399;51.444;-2.018;2023-03-05T04:01:47;26.03;;;12.43;;
43435;SDS011;36399;51.444;-2.018;2023-03-05T04:04:13;27.13;;;12.80;;
43435;SDS011;36399;51.444;-2.018;2023-03-05T04:06:40;26.23;;;13.40;;
43435;SDS011;36399;51.444;-2.018;2023-03-05T04:09:06;25.67;;;12.27;;
43435;SDS011;36399;51.444;-2.018;2023-03-05T04:11:33;25.97;;;12.97;;
43435;SDS011;36399;51.444;-2.018;2023-03-05T04:14:00;24.13;;;12.47;;
43435;SDS011;36399;51.444;-2.018;2023-03-05T04:16:25;27.47;;;13.00;;
43435;SDS011;36399;51.444;-2.018;2023-03-05T04:18:52;26.63;;;12.90;;
43435;SDS011;36399;51.444;-2.018;2023-03-05T04:21:18;26.63;;;13.70;;
43435;SDS011;36399;51.444;-2.018;2023-03-05T04:23:44;23.43;;;12.00;;
43435;SDS011;36399;51.444;-2.018;2023-03-05T04:26:10;29.30;;;14.33;;
43435;SDS011;36399;51.444;-2.018;2023-03-05T04:28:36;25.90;;;12.10;;
43435;SDS011;36399;51.444;-2.018;2023-03-05T04:31:02;25.20;;;12.10;;
43435;SDS011;36399;51.444;-2.018;2023-03-05T04:33:28;21.70;;;12.20;;
43435;SDS011;36399;51.444;-2.018;2023-03-05T04:35:55;25.33;;;12.20;;
43435;SDS011;36399;51.444;-2.018;2023-03-05T04:38:21;26.47;;;12.97;;
43435;SDS011;36399;51.444;-2.018;2023-03-05T04:40:47;28.47;;;12.90;;
43435;SDS011;36399;51.444;-2.018;2023-03-05T04:43:13;29.10;;;12.63;;
43435;SDS011;36399;51.444;-2.018;2023-03-05T04:45:39;26.50;;;12.43;;
43435;SDS011;36399;51.444;-2.018;2023-03-05T04:48:06;25.83;;;12.67;;
43435;SDS011;36399;51.444;-2.018;2023-03-05T04:50:32;22.87;;;12.50;;
43435;SDS011;36399;51.444;-2.018;2023-03-05T04:52:59;27.83;;;13.77;;
43435;SDS011;36399;51.444;-2.018;2023-03-05T04:55:25;29.83;;;13.27;;
43435;SDS011;36399;51.444;-2.018;2023-03-05T04:57:51;29.90;;;14.67;;
43435;SDS011;36399;51.444;-2.018;2023-03-05T05:00:18;29.07;;;13.73;;
43435;SDS011;36399;51.444;-2.018;2023-03-05T05:02:45;30.83;;;13.40;;
43435;SDS011;36399;51.444;-2.018;2023-03-05T05:05:14;27.83;;;12.47;;
43435;SDS011;36399;51.444;-2.018;2023-03-05T05:07:42;26.53;;;13.10;;
43435;SDS011;36399;51.444;-2.018;2023-03-05T05:10:10;25.67;;;12.67;;
43435;SDS011;36399;51.444;-2.018;2023-03-05T05:12:37;27.07;;;12.77;;
43435;SDS011;36399;51.444;-2.018;2023-03-05T05:15:05;26.43;;;12.53;;
43435;SDS011;36399;51.444;-2.018;2023-03-05T05:17:32;22.80;;;10.77;;
43435;SDS011;36399;51.444;-2.018;2023-03-05T05:19:59;24.13;;;11.10;;
43435;SDS011;36399;51.444;-2.018;2023-03-05T05:22:26;21.07;;;10.70;;
43435;SDS011;36399;51.444;-2.018;2023-03-05T05:24:53;18.00;;;9.57;;
43435;SDS011;36399;51.444;-2.018;2023-03-05T05:27:20;19.27;;;9.63;;
43435;SDS011;36399;51.444;-2.018;2023-03-05T05:29:46;20.83;;;10.27;;
43435;SDS011;36399;51.444;-2.018;2023-03-05T05:32:15;15.87;;;8.90;;
43435;SDS011;36399;51.444;-2.018;2023-03-05T05:34:42;16.53;;;9.53;;
43435;SDS011;36399;51.444;-2.018;2023-03-05T05:37:08;18.20;;;9.57;;
43435;SDS011;36399;51.444;-2.018;2023-03-05T05:39:34;18.17;;;9.37;;
43435;SDS011;36399;51.444;-2.018;2023-03-05T05:42:00;18.93;;;9.27;;
43435;SDS011;36399;51.444;-2.018;2023-03-05T05:44:26;17.53;;;9.53;;
43435;SDS011;36399;51.444;-2.018;2023-03-05T05:46:52;13.67;;;7.27;;
43435;SDS011;36399;51.444;-2.018;2023-03-05T05:49:18;12.80;;;7.70;;
43435;SDS011;36399;51.444;-2.018;2023-03-05T05:51:44;12.63;;;6.57;;
43435;SDS011;36399;51.444;-2.018;2023-03-05T05:54:11;14.40;;;7.50;;
43435;SDS011;36399;51.444;-2.018;2023-03-05T05:56:38;15.07;;;7.33;;
43435;SDS011;36399;51.444;-2.018;2023-03-05T05:59:04;12.47;;;5.87;;
43435;SDS011;36399;51.444;-2.018;2023-03-05T06:01:32;14.17;;;6.93;;
43435;SDS011;36399;51.444;-2.018;2023-03-05T06:03:59;12.03;;;6.57;;
43435;SDS011;36399;51.444;-2.018;2023-03-05T06:06:26;14.97;;;6.23;;
43435;SDS011;36399;51.444;-2.018;2023-03-05T06:08:53;11.43;;;5.23;;
43435;SDS011;36399;51.444;-2.018;2023-03-05T06:11:20;12.53;;;6.03;;
43435;SDS011;36399;51.444;-2.018;2023-03-05T06:13:46;10.00;;;5.30;;
43435;SDS011;36399;51.444;-2.018;2023-03-05T06:16:13;12.93;;;5.30;;
43435;SDS011;36399;51.444;-2.018;2023-03-05T06:18:41;12.90;;;5.87;;
43435;SDS011;36399;51.444;-2.018;2023-03-05T06:21:09;9.73;;;5.93;;
43435;SDS011;36399;51.444;-2.018;2023-03-05T06:23:37;10.87;;;5.27;;
43435;SDS011;36399;51.444;-2.018;2023-03-05T06:26:04;10.57;;;7.00;;
43435;SDS011;36399;51.444;-2.018;2023-03-05T06:28:32;8.73;;;5.30;;
43435;SDS011;36399;51.444;-2.018;2023-03-05T06:30:59;9.77;;;5.30;;
43435;SDS011;36399;51.444;-2.018;2023-03-05T06:33:26;11.33;;;6.03;;
43435;SDS011;36399;51.444;-2.018;2023-03-05T06:35:52;11.67;;;6.07;;
43435;SDS011;36399;51.444;-2.018;2023-03-05T06:38:18;8.43;;;5.33;;
43435;SDS011;36399;51.444;-2.018;2023-03-05T06:40:44;8.97;;;4.87;;
43435;SDS011;36399;51.444;-2.018;2023-03-05T06:43:10;8.37;;;4.37;;
43435;SDS011;36399;51.444;-2.018;2023-03-05T06:45:36;10.77;;;5.33;;
43435;SDS011;36399;51.444;-2.018;2023-03-05T06:48:02;9.77;;;5.10;;
43435;SDS011;36399;51.444;-2.018;2023-03-05T06:50:28;8.17;;;4.63;;
43435;SDS011;36399;51.444;-2.018;2023-03-05T06:52:58;6.77;;;4.60;;
43435;SDS011;36399;51.444;-2.018;2023-03-05T06:55:23;11.30;;;5.20;;
43435;SDS011;36399;51.444;-2.018;2023-03-05T06:57:51;9.60;;;4.73;;
43435;SDS011;36399;51.444;-2.018;2023-03-05T07:00:17;10.47;;;5.30;;
43435;SDS011;36399;51.444;-2.018;2023-03-05T07:02:43;12.10;;;5.17;;
43435;SDS011;36399;51.444;-2.018;2023-03-05T07:05:09;8.27;;;4.87;;
43435;SDS011;36399;51.444;-2.018;2023-03-05T07:07:36;9.60;;;4.30;;
43435;SDS011;36399;51.444;-2.018;2023-03-05T07:10:02;8.07;;;4.50;;
43435;SDS011;36399;51.444;-2.018;2023-03-05T07:12:32;9.37;;;4.37;;
43435;SDS011;36399;51.444;-2.018;2023-03-05T07:14:59;9.70;;;5.20;;
43435;SDS011;36399;51.444;-2.018;2023-03-05T07:17:25;9.23;;;5.17;;
43435;SDS011;36399;51.444;-2.018;2023-03-05T07:19:52;7.10;;;4.10;;
43435;SDS011;36399;51.444;-2.018;2023-03-05T07:22:18;8.70;;;5.57;;
43435;SDS011;36399;51.444;-2.018;2023-03-05T07:24:44;7.57;;;4.67;;
43435;SDS011;36399;51.444;-2.018;2023-03-05T07:27:11;9.60;;;5.40;;
43435;SDS011;36399;51.444;-2.018;2023-03-05T07:29:37;10.00;;;4.63;;
43435;SDS011;36399;51.444;-2.018;2023-03-05T07:32:03;10.23;;;5.07;;
43435;SDS011;36399;51.444;-2.018;2023-03-05T07:34:29;8.50;;;5.15;;
43435;SDS011;36399;51.444;-2.018;2023-03-05T07:36:55;10.20;;;5.17;;
43435;SDS011;36399;51.444;-2.018;2023-03-05T07:39:22;9.97;;;5.60;;
43435;SDS011;36399;51.444;-2.018;2023-03-05T07:41:48;12.67;;;5.93;;
43435;SDS011;36399;51.444;-2.018;2023-03-05T07:44:16;9.63;;;5.73;;
43435;SDS011;36399;51.444;-2.018;2023-03-05T07:46:42;10.67;;;6.27;;
43435;SDS011;36399;51.444;-2.018;2023-03-05T07:49:08;12.00;;;5.90;;
43435;SDS011;36399;51.444;-2.018;2023-03-05T07:51:34;8.27;;;4.97;;
43435;SDS011;36399;51.444;-2.018;2023-03-05T07:54:00;7.73;;;5.60;;
43435;SDS011;36399;51.444;-2.018;2023-03-05T07:56:28;10.10;;;5.40;;
43435;SDS011;36399;51.444;-2.018;2023-03-05T07:59:00;10.00;;;5.50;;
43435;SDS011;36399;51.444;-2.018;2023-03-05T08:01:29;10.05;;;6.22;;
43435;SDS011;36399;51.444;-2.018;2023-03-05T08:03:56;10.87;;;5.47;;
43435;SDS011;36399;51.444;-2.018;2023-03-05T08:06:23;12.27;;;6.13;;
43435;SDS011;36399;51.444;-2.018;2023-03-05T08:08:49;11.70;;;5.53;;
43435;SDS011;36399;51.444;-2.018;2023-03-05T08:11:15;9.03;;;6.03;;
43435;SDS011;36399;51.444;-2.018;2023-03-05T08:13:42;10.30;;;6.37;;
43435;SDS011;36399;51.444;-2.018;2023-03-05T08:16:13;13.93;;;6.30;;
43435;SDS011;36399;51.444;-2.018;2023-03-05T08:18:40;13.73;;;6.47;;
43435;SDS011;36399;51.444;-2.018;2023-03-05T08:21:14;11.67;;;5.77;;
43435;SDS011;36399;51.444;-2.018;2023-03-05T08:23:47;10.00;;;6.33;;
43435;SDS011;36399;51.444;-2.018;2023-03-05T08:26:14;11.10;;;6.20;;
43435;SDS011;36399;51.444;-2.018;2023-03-05T08:28:41;9.73;;;5.30;;
43435;SDS011;36399;51.444;-2.018;2023-03-05T08:31:11;8.43;;;5.97;;
43435;SDS011;36399;51.444;-2.018;2023-03-05T08:33:39;12.07;;;5.13;;
43435;SDS011;36399;51.444;-2.018;2023-03-05T08:36:05;10.97;;;6.33;;
43435;SDS011;36399;51.444;-2.018;2023-03-05T08:38:33;10.60;;;6.30;;
43435;SDS011;36399;51.444;-2.018;2023-03-05T08:40:59;9.80;;;5.57;;
43435;SDS011;36399;51.444;-2.018;2023-03-05T08:43:25;11.20;;;6.40;;
43435;SDS011;36399;51.444;-2.018;2023-03-05T08:45:51;12.70;;;5.93;;
43435;SDS011;36399;51.444;-2.018;2023-03-05T08:48:18;13.00;;;6.30;;
43435;SDS011;36399;51.444;-2.018;2023-03-05T08:50:45;9.03;;;5.97;;
43435;SDS011;36399;51.444;-2.018;2023-03-05T08:53:14;9.30;;;5.27;;
43435;SDS011;36399;51.444;-2.018;2023-03-05T08:55:40;12.53;;;5.17;;
43435;SDS011;36399;51.444;-2.018;2023-03-05T08:58:06;8.27;;;5.27;;
43435;SDS011;36399;51.444;-2.018;2023-03-05T09:00:32;9.60;;;4.77;;
43435;SDS011;36399;51.444;-2.018;2023-03-05T09:02:58;8.83;;;4.97;;
43435;SDS011;36399;51.444;-2.018;2023-03-05T09:05:24;8.80;;;4.87;;
43435;SDS011;36399;51.444;-2.018;2023-03-05T09:07:49;7.17;;;4.93;;
43435;SDS011;36399;51.444;-2.018;2023-03-05T09:12:43;10.53;;;5.23;;
43435;SDS011;36399;51.444;-2.018;2023-03-05T09:15:09;7.63;;;4.97;;
43435;SDS011;36399;51.444;-2.018;2023-03-05T09:17:36;8.33;;;4.80;;
43435;SDS011;36399;51.444;-2.018;2023-03-05T09:20:04;10.43;;;4.83;;
43435;SDS011;36399;51.444;-2.018;2023-03-05T09:22:31;7.83;;;4.60;;
43435;SDS011;36399;51.444;-2.018;2023-03-05T09:24:57;7.80;;;4.73;;
43435;SDS011;36399;51.444;-2.018;2023-03-05T09:27:23;6.57;;;3.83;;
43435;SDS011;36399;51.444;-2.018;2023-03-05T09:29:49;5.90;;;3.53;;
43435;SDS011;36399;51.444;-2.018;2023-03-05T09:32:15;7.63;;;4.63;;
43435;SDS011;36399;51.444;-2.018;2023-03-05T09:34:41;7.80;;;4.53;;
43435;SDS011;36399;51.444;-2.018;2023-03-05T09:37:07;6.97;;;4.33;;
43435;SDS011;36399;51.444;-2.018;2023-03-05T09:39:34;9.23;;;4.40;;
43435;SDS011;36399;51.444;-2.018;2023-03-05T09:47:25;6.03;;;3.40;;
43435;SDS011;36399;51.444;-2.018;2023-03-05T09:50:18;7.33;;;4.00;;
43435;SDS011;36399;51.444;-2.018;2023-03-05T09:53:00;7.03;;;3.70;;
43435;SDS011;36399;51.444;-2.018;2023-03-05T09:55:41;7.70;;;4.68;;
43435;SDS011;36399;51.444;-2.018;2023-03-05T09:58:10;8.57;;;3.77;;
43435;SDS011;36399;51.444;-2.018;2023-03-05T10:03:26;5.73;;;3.43;;
43435;SDS011;36399;51.444;-2.018;2023-03-05T10:06:10;8.80;;;4.37;;
43435;SDS011;36399;51.444;-2.018;2023-03-05T10:08:52;9.67;;;3.60;;
43435;SDS011;36399;51.444;-2.018;2023-03-05T10:11:28;6.60;;;2.97;;
43435;SDS011;36399;51.444;-2.018;2023-03-05T10:14:23;5.50;;;3.17;;
43435;SDS011;36399;51.444;-2.018;2023-03-05T10:17:01;4.83;;;2.57;;
43435;SDS011;36399;51.444;-2.018;2023-03-05T10:22:55;6.03;;;3.03;;
43435;SDS011;36399;51.444;-2.018;2023-03-05T10:25:18;6.97;;;3.17;;
43435;SDS011;36399;51.444;-2.018;2023-03-05T10:27:54;8.33;;;3.43;;
43435;SDS011;36399;51.444;-2.018;2023-03-05T10:33:07;6.80;;;2.87;;
43435;SDS011;36399;51.444;-2.018;2023-03-05T10:38:50;10.95;;;3.40;;
43435;SDS011;36399;51.444;-2.018;2023-03-05T10:41:32;5.13;;;2.90;;
43435;SDS011;36399;51.444;-2.018;2023-03-05T10:44:08;7.07;;;3.33;;
43435;SDS011;36399;51.444;-2.018;2023-03-05T10:46:41;5.53;;;2.70;;
43435;SDS011;36399;51.444;-2.018;2023-03-05T10:49:19;6.27;;;2.53;;
43435;SDS011;36399;51.444;-2.018;2023-03-05T10:51:52;6.03;;;2.60;;
43435;SDS011;36399;51.444;-2.018;2023-03-05T10:54:37;4.30;;;2.50;;
43435;SDS011;36399;51.444;-2.018;2023-03-05T10:57:20;5.03;;;2.63;;
43435;SDS011;36399;51.444;-2.018;2023-03-05T10:59:49;5.70;;;2.73;;
43435;SDS011;36399;51.444;-2.018;2023-03-05T11:02:17;6.03;;;2.73;;
43435;SDS011;36399;51.444;-2.018;2023-03-05T11:04:44;5.53;;;3.37;;
43435;SDS011;36399;51.444;-2.018;2023-03-05T11:12:28;5.13;;;3.70;;
43435;SDS011;36399;51.444;-2.018;2023-03-05T11:17:40;5.30;;;3.07;;
43435;SDS011;36399;51.444;-2.018;2023-03-05T11:25:34;5.07;;;2.57;;
43435;SDS011;36399;51.444;-2.018;2023-03-05T11:28:18;5.93;;;3.03;;
43435;SDS011;36399;51.444;-2.018;2023-03-05T11:30:56;6.50;;;3.53;;
43435;SDS011;36399;51.444;-2.018;2023-03-05T11:33:25;5.63;;;3.00;;
43435;SDS011;36399;51.444;-2.018;2023-03-05T11:35:52;5.87;;;3.00;;
43435;SDS011;36399;51.444;-2.018;2023-03-05T11:38:42;4.68;;;2.78;;
43435;SDS011;36399;51.444;-2.018;2023-03-05T11:41:30;6.13;;;2.83;;
43435;SDS011;36399;51.444;-2.018;2023-03-05T11:44:16;4.67;;;3.10;;
43435;SDS011;36399;51.444;-2.018;2023-03-05T11:46:49;4.23;;;2.50;;
43435;SDS011;36399;51.444;-2.018;2023-03-05T11:49:24;6.23;;;2.47;;
43435;SDS011;36399;51.444;-2.018;2023-03-05T11:52:06;7.93;;;3.13;;
43435;SDS011;36399;51.444;-2.018;2023-03-05T11:54:50;8.20;;;3.83;;
43435;SDS011;36399;51.444;-2.018;2023-03-05T11:57:22;6.70;;;2.63;;
43435;SDS011;36399;51.444;-2.018;2023-03-05T11:59:51;4.57;;;2.43;;
43435;SDS011;36399;51.444;-2.018;2023-03-05T12:02:23;5.03;;;2.67;;
43435;SDS011;36399;51.444;-2.018;2023-03-05T12:04:51;6.13;;;2.80;;
43435;SDS011;36399;51.444;-2.018;2023-03-05T12:07:33;7.20;;;3.20;;
43435;SDS011;36399;51.444;-2.018;2023-03-05T12:10:05;5.77;;;2.87;;
43435;SDS011;36399;51.444;-2.018;2023-03-05T12:20:59;5.43;;;2.40;;
43435;SDS011;36399;51.444;-2.018;2023-03-05T12:23:42;5.40;;;3.40;;
43435;SDS011;36399;51.444;-2.018;2023-03-05T12:26:11;4.20;;;2.60;;
43435;SDS011;36399;51.444;-2.018;2023-03-05T12:28:51;5.23;;;2.90;;
43435;SDS011;36399;51.444;-2.018;2023-03-05T12:31:33;5.63;;;3.13;;
43435;SDS011;36399;51.444;-2.018;2023-03-05T12:37:10;6.33;;;3.07;;
43435;SDS011;36399;51.444;-2.018;2023-03-05T12:39:44;7.07;;;3.43;;
43435;SDS011;36399;51.444;-2.018;2023-03-05T12:47:44;8.13;;;3.83;;
43435;SDS011;36399;51.444;-2.018;2023-03-05T12:53:12;7.80;;;4.10;;
43435;SDS011;36399;51.444;-2.018;2023-03-05T12:58:54;8.20;;;4.97;;
43435;SDS011;36399;51.444;-2.018;2023-03-05T13:03:37;7.37;;;3.80;;
43435;SDS011;36399;51.444;-2.018;2023-03-05T13:06:19;6.47;;;4.03;;
43435;SDS011;36399;51.444;-2.018;2023-03-05T13:08:57;8.90;;;3.83;;
43435;SDS011;36399;51.444;-2.018;2023-03-05T13:11:23;9.33;;;3.67;;
43435;SDS011;36399;51.444;-2.018;2023-03-05T13:13:50;6.90;;;3.60;;
43435;SDS011;36399;51.444;-2.018;2023-03-05T13:16:17;7.67;;;3.67;;
43435;SDS011;36399;51.444;-2.018;2023-03-05T13:18:47;7.37;;;3.53;;
43435;SDS011;36399;51.444;-2.018;2023-03-05T13:21:18;8.03;;;3.70;;
43435;SDS011;36399;51.444;-2.018;2023-03-05T13:26:22;6.37;;;2.97;;
43435;SDS011;36399;51.444;-2.018;2023-03-05T13:29:16;8.13;;;3.92;;
43435;SDS011;36399;51.444;-2.018;2023-03-05T13:31:44;7.70;;;4.23;;
43435;SDS011;36399;51.444;-2.018;2023-03-05T13:34:17;9.43;;;3.43;;
43435;SDS011;36399;51.444;-2.018;2023-03-05T13:36:49;6.30;;;4.00;;
43435;SDS011;36399;51.444;-2.018;2023-03-05T13:39:19;10.33;;;5.20;;
43435;SDS011;36399;51.444;-2.018;2023-03-05T13:44:52;6.53;;;3.27;;
43435;SDS011;36399;51.444;-2.018;2023-03-05T13:47:25;5.97;;;3.17;;
43435;SDS011;36399;51.444;-2.018;2023-03-05T13:50:27;8.40;;;4.03;;
43435;SDS011;36399;51.444;-2.018;2023-03-05T13:52:53;6.13;;;3.77;;
43435;SDS011;36399;51.444;-2.018;2023-03-05T13:55:19;6.80;;;3.77;;
43435;SDS011;36399;51.444;-2.018;2023-03-05T13:57:46;9.90;;;3.80;;
43435;SDS011;36399;51.444;-2.018;2023-03-05T14:03:06;8.20;;;4.17;;
43435;SDS011;36399;51.444;-2.018;2023-03-05T14:05:35;10.10;;;4.07;;
43435;SDS011;36399;51.444;-2.018;2023-03-05T14:08:01;7.43;;;4.23;;
43435;SDS011;36399;51.444;-2.018;2023-03-05T14:10:35;6.80;;;3.60;;
43435;SDS011;36399;51.444;-2.018;2023-03-05T14:13:10;10.57;;;3.60;;
43435;SDS011;36399;51.444;-2.018;2023-03-05T14:15:38;7.60;;;3.80;;
43435;SDS011;36399;51.444;-2.018;2023-03-05T14:18:14;9.33;;;3.63;;
43435;SDS011;36399;51.444;-2.018;2023-03-05T14:20:59;6.53;;;3.90;;
43435;SDS011;36399;51.444;-2.018;2023-03-05T14:28:49;6.20;;;4.80;;
43435;SDS011;36399;51.444;-2.018;2023-03-05T14:31:17;9.03;;;4.50;;
43435;SDS011;36399;51.444;-2.018;2023-03-05T14:33:44;6.70;;;3.47;;
43435;SDS011;36399;51.444;-2.018;2023-03-05T14:36:10;8.90;;;4.90;;
43435;SDS011;36399;51.444;-2.018;2023-03-05T14:38:44;8.63;;;4.27;;
43435;SDS011;36399;51.444;-2.018;2023-03-05T14:44:13;8.87;;;4.03;;
43435;SDS011;36399;51.444;-2.018;2023-03-05T14:46:42;6.33;;;3.87;;
43435;SDS011;36399;51.444;-2.018;2023-03-05T14:49:08;7.07;;;4.43;;
43435;SDS011;36399;51.444;-2.018;2023-03-05T14:51:36;7.93;;;3.73;;
43435;SDS011;36399;51.444;-2.018;2023-03-05T14:54:04;8.87;;;5.17;;
43435;SDS011;36399;51.444;-2.018;2023-03-05T14:56:31;7.87;;;4.13;;
43435;SDS011;36399;51.444;-2.018;2023-03-05T14:58:57;9.37;;;5.27;;
43435;SDS011;36399;51.444;-2.018;2023-03-05T15:01:23;8.33;;;3.80;;
43435;SDS011;36399;51.444;-2.018;2023-03-05T15:03:50;10.13;;;4.03;;
43435;SDS011;36399;51.444;-2.018;2023-03-05T15:06:29;8.87;;;3.47;;
43435;SDS011;36399;51.444;-2.018;2023-03-05T15:08:59;9.07;;;4.27;;
43435;SDS011;36399;51.444;-2.018;2023-03-05T15:11:26;7.43;;;3.90;;
43435;SDS011;36399;51.444;-2.018;2023-03-05T15:13:52;8.33;;;4.43;;
43435;SDS011;36399;51.444;-2.018;2023-03-05T15:16:17;7.87;;;3.70;;
43435;SDS011;36399;51.444;-2.018;2023-03-05T15:18:44;9.53;;;4.53;;
43435;SDS011;36399;51.444;-2.018;2023-03-05T15:21:10;7.27;;;3.37;;
43435;SDS011;36399;51.444;-2.018;2023-03-05T15:23:36;9.27;;;4.40;;
43435;SDS011;36399;51.444;-2.018;2023-03-05T15:26:03;6.13;;;3.87;;
43435;SDS011;36399;51.444;-2.018;2023-03-05T15:28:32;9.77;;;5.43;;
43435;SDS011;36399;51.444;-2.018;2023-03-05T15:31:00;9.13;;;4.37;;
43435;SDS011;36399;51.444;-2.018;2023-03-05T15:33:27;8.83;;;4.40;;
43435;SDS011;36399;51.444;-2.018;2023-03-05T15:35:54;9.10;;;4.83;;
43435;SDS011;36399;51.444;-2.018;2023-03-05T15:38:20;6.80;;;3.97;;
43435;SDS011;36399;51.444;-2.018;2023-03-05T15:40:46;8.90;;;4.73;;
43435;SDS011;36399;51.444;-2.018;2023-03-05T15:43:13;9.77;;;5.00;;
43435;SDS011;36399;51.444;-2.018;2023-03-05T15:45:39;10.17;;;4.97;;
43435;SDS011;36399;51.444;-2.018;2023-03-05T15:48:05;7.57;;;4.40;;
43435;SDS011;36399;51.444;-2.018;2023-03-05T15:50:31;9.57;;;5.17;;